Time;durP1;ratioP1;P1;durP2;ratioP2;P2;SDS_P1;SDS_P2;PMS_P1;PMS_P2;Temp;Humidity;BMP_temperature;BMP_pressure;BME280_temperature;BME280_humidity;BME280_pressure;Samples;Min_cycle;Max_cycle;Signal;HPM_P1;HPM_P2
2022/05/27 00:01:33;;;;;;;1999.90;670.95;;;14.50;99.90;;;;;;5111635;28;20082;-79
2022/05/27 00:04:01;;;;;;;1999.90;733.10;;;14.00;99.90;;;;;;5111447;28;20055;-79
2022/05/27 00:06:28;;;;;;;1999.90;836.78;;;13.90;99.90;;;;;;5112694;28;20051;-79
2022/05/27 00:08:54;;;;;;;1999.90;657.58;;;13.90;96.80;;;;;;5111864;28;20039;-79
2022/05/27 00:11:22;;;;;;;1999.90;684.33;;;13.90;62.40;;;;;;5094656;28;20484;-79
2022/05/27 00:13:49;;;;;;;1999.90;761.38;;;14.30;1.00;;;;;;5112315;28;20073;-79
2022/05/27 00:16:15;;;;;;;1999.90;757.78;;;14.10;1.00;;;;;;5094359;28;20151;-79
2022/05/27 00:18:42;;;;;;;1999.90;658.55;;;14.30;1.00;;;;;;5112324;28;20130;-78
2022/05/27 00:21:08;;;;;;;1999.90;780.67;;;14.20;1.00;;;;;;5111852;28;20128;-78
2022/05/27 00:23:34;;;;;;;1999.90;737.85;;;13.90;1.00;;;;;;5112006;28;20039;-79
2022/05/27 00:26:00;;;;;;;1999.90;721.25;;;14.30;1.00;;;;;;5111853;28;20044;-79
2022/05/27 00:28:26;;;;;;;1999.90;752.38;;;14.20;99.90;;;;;;5093814;28;20043;-79
2022/05/27 00:30:52;;;;;;;1999.90;677.42;;;13.90;99.90;;;;;;5111870;28;20039;-78
2022/05/27 00:33:19;;;;;;;1999.90;736.10;;;13.90;99.90;;;;;;5112051;28;20130;-78
2022/05/27 00:35:45;;;;;;;1999.90;685.72;;;13.80;99.90;;;;;;5112203;28;20143;-78
2022/05/27 00:38:12;;;;;;;1666.88;470.95;;;13.80;99.90;;;;;;5111429;28;20458;-79
2022/05/27 00:40:50;;;;;;;1999.90;599.27;;;14.10;99.90;;;;;;5094140;28;20429;-79
2022/05/27 00:43:16;;;;;;;1999.90;555.90;;;13.80;99.90;;;;;;5112203;28;20406;-78
2022/05/27 00:45:45;;;;;;;1999.90;586.70;;;13.70;99.90;;;;;;5111944;28;20097;-79
2022/05/27 00:48:14;;;;;;;1999.90;621.25;;;13.70;99.90;;;;;;5111589;28;20054;-79
2022/05/27 00:50:42;;;;;;;1999.90;547.67;;;14.00;99.90;;;;;;5114959;28;20047;-78
2022/05/27 00:53:10;;;;;;;1999.90;702.65;;;13.70;99.90;;;;;;5115558;28;20055;-78
2022/05/27 00:55:49;;;;;;;1999.90;619.70;;;14.00;62.40;;;;;;5115711;28;20095;-78
2022/05/27 00:58:28;;;;;;;1830.53;414.63;;;15.10;15.90;;;;;;5115911;28;20452;-79
2022/05/27 01:00:53;;;;;;;;;;;13.60;6.20;;;;;;5114657;28;20386;-79
2022/05/27 01:03:20;;;;;;;1861.93;690.38;;;13.80;1.00;;;;;;5115357;28;20007;-78
2022/05/27 01:05:46;;;;;;;1999.90;502.35;;;13.70;1.00;;;;;;5115645;28;20051;-78
2022/05/27 01:08:16;;;;;;;1901.38;392.15;;;13.60;1.00;;;;;;5115016;28;20043;-78
2022/05/27 01:11:13;;;;;;;1958.93;471.52;;;13.40;1.00;;;;;;5115803;28;20128;-78
2022/05/27 01:13:56;;;;;;;1641.28;341.42;;;13.50;1.00;;;;;;5071203;28;20139;-78
2022/05/27 01:16:43;;;;;;;1779.65;539.92;;;13.30;1.00;;;;;;5097697;28;20051;-78
2022/05/27 01:22:41;;;;;;;1936.45;840.65;;;13.20;1.00;;;;;;5115071;28;20527;-79
2022/05/27 01:25:31;;;;;;;1990.25;725.13;;;13.30;1.00;;;;;;5096939;28;20126;-78
2022/05/27 01:28:42;;;;;;;1829.60;399.85;;;13.20;99.90;;;;;;5115241;28;20051;-78
2022/05/27 01:31:26;;;;;;;1918.47;843.70;;;13.10;99.90;;;;;;5046117;28;20067;-78
2022/05/27 01:34:00;;;;;;;1443.00;315.17;;;13.20;99.90;;;;;;5115300;28;20098;-78
2022/05/27 01:36:46;;;;;;;1740.20;353.50;;;13.00;99.90;;;;;;5115916;28;20051;-78
2022/05/27 01:39:48;;;;;;;1859.10;399.60;;;13.10;99.90;;;;;;5095513;28;20109;-78
2022/05/27 01:42:35;;;;;;;1317.93;257.35;;;13.00;99.90;;;;;;5114845;28;20046;-79
2022/05/27 01:45:19;;;;;;;1609.82;344.58;;;13.30;99.90;;;;;;5114643;28;20040;-78
2022/05/27 01:48:25;;;;;;;1999.90;522.92;;;13.20;99.90;;;;;;5114641;28;20054;-78
2022/05/27 01:51:00;;;;;;;1818.13;433.92;;;13.10;99.90;;;;;;5111139;28;20055;-78
2022/05/27 01:53:39;;;;;;;1999.90;461.02;;;13.10;99.90;;;;;;5114861;28;20066;-78
2022/05/27 01:56:38;;;;;;;1999.90;487.23;;;13.20;99.90;;;;;;5114508;28;20044;-78
2022/05/27 01:59:12;;;;;;;1913.95;704.50;;;13.10;99.90;;;;;;5114632;28;20069;-78
2022/05/27 02:01:44;;;;;;;1858.85;408.67;;;13.20;99.90;;;;;;5113348;28;20043;-78
2022/05/27 02:04:33;;;;;;;1677.85;334.92;;;13.10;99.90;;;;;;5114332;28;20051;-79
2022/05/27 02:07:05;;;;;;;1500.75;586.90;;;12.80;99.90;;;;;;5098762;28;20055;-78
2022/05/27 02:09:42;;;;;;;1459.75;291.48;;;12.80;99.90;;;;;;5114412;28;20054;-77
2022/05/27 02:12:14;;;;;;;1999.90;523.37;;;12.80;95.90;;;;;;5114552;28;20042;-78
2022/05/27 02:14:58;;;;;;;1999.90;999.90;;;12.60;96.60;;;;;;5114269;28;20503;-78
2022/05/27 02:17:44;;;;;;;905.90;176.98;;;12.50;92.20;;;;;;5114762;28;20138;-78
2022/05/27 02:20:16;;;;;;;1317.72;245.18;;;12.50;82.00;;;;;;5095929;28;20054;-78
2022/05/27 02:22:49;;;;;;;1999.90;999.90;;;12.70;49.30;;;;;;5114247;28;20035;-79
2022/05/27 02:25:23;;;;;;;1289.20;230.05;;;13.40;35.40;;;;;;5079445;28;20110;-77
2022/05/27 02:28:04;;;;;;;1689.90;784.95;;;12.60;39.60;;;;;;5114353;28;20051;-78
2022/05/27 02:30:33;;;;;;;1212.70;237.82;;;12.60;49.20;;;;;;5114265;28;20048;-78
2022/05/27 02:35:58;;;;;;;1999.90;999.90;;;12.50;30.90;;;;;;5114119;28;20052;-78
2022/05/27 02:38:26;;;;;;;1707.22;786.17;;;12.40;31.00;;;;;;5113465;28;20047;-78
2022/05/27 02:40:58;;;;;;;;;;;12.30;14.80;;;;;;5114554;28;20453;-78
2022/05/27 02:44:08;;;;;;;1999.90;999.90;;;12.30;13.90;;;;;;5113610;28;19919;-77
2022/05/27 02:46:57;;;;;;;1999.90;999.90;;;12.10;38.10;;;;;;5114093;28;20442;-78
2022/05/27 02:49:29;;;;;;;1999.90;999.90;;;12.20;27.00;;;;;;5113369;28;20394;-77
2022/05/27 02:52:10;;;;;;;1999.90;999.90;;;12.10;23.20;;;;;;5095557;28;20096;-78
2022/05/27 02:54:43;;;;;;;1999.90;999.90;;;12.00;24.50;;;;;;5113328;28;20043;-78
2022/05/27 02:57:14;;;;;;;1638.40;776.30;;;12.10;18.40;;;;;;5113561;28;20062;-78
2022/05/27 02:59:41;;;;;;;1999.90;999.90;;;12.50;7.80;;;;;;5113600;28;20039;-78
2022/05/27 03:02:15;;;;;;;1999.90;999.90;;;12.00;23.30;;;;;;5112321;28;20046;-78
2022/05/27 03:04:48;;;;;;;1788.50;799.72;;;12.40;5.90;;;;;;5113816;28;20148;-78
2022/05/27 03:07:32;;;;;;;1167.53;252.20;;;12.00;1.00;;;;;;5113553;28;20051;-78
2022/05/27 03:10:19;;;;;;;1863.18;826.88;;;12.30;1.00;;;;;;5113366;28;20043;-77
2022/05/27 03:12:58;;;;;;;1999.90;999.90;;;12.10;1.00;;;;;;5112824;28;20131;-78
2022/05/27 03:15:39;;;;;;;1747.53;796.95;;;12.10;1.00;;;;;;5094907;28;20505;-78
2022/05/27 03:18:32;;;;;;;1747.75;795.90;;;12.30;1.00;;;;;;5094756;28;20096;-82
2022/05/27 03:21:18;;;;;;;1300.25;552.92;;;12.20;1.00;;;;;;5113474;28;20052;-78
2022/05/27 03:24:06;;;;;;;1723.40;792.78;;;12.10;1.00;;;;;;5112062;28;20081;-78
2022/05/27 03:26:46;;;;;;;1999.90;999.90;;;12.00;1.00;;;;;;5081608;28;20059;-78
2022/05/27 03:29:43;;;;;;;1999.90;999.90;;;12.10;1.00;;;;;;5112985;28;20150;-78
2022/05/27 03:32:17;;;;;;;1999.90;999.90;;;12.10;1.00;;;;;;5112867;28;20040;-79
2022/05/27 03:35:06;;;;;;;759.90;133.45;;;12.10;1.00;;;;;;5113152;28;20054;-78
2022/05/27 03:37:54;;;;;;;;;;;11.90;1.00;;;;;;5113734;28;20044;-78
2022/05/27 03:40:36;;;;;;;1999.90;999.90;;;11.90;1.00;;;;;;5112200;28;20376;-78
2022/05/27 03:43:02;;;;;;;1999.90;999.90;;;11.90;1.00;;;;;;5112866;28;20035;-78
2022/05/27 03:45:28;;;;;;;1999.90;999.90;;;12.00;1.00;;;;;;5112731;28;20446;-78
2022/05/27 03:47:54;;;;;;;1999.90;999.90;;;11.90;1.00;;;;;;5112785;28;20058;-78
2022/05/27 03:50:24;;;;;;;1999.90;999.90;;;11.80;1.00;;;;;;5112591;28;20044;-78
2022/05/27 03:52:52;;;;;;;1999.90;999.90;;;11.90;1.00;;;;;;5112517;28;20143;-78
2022/05/27 03:55:22;;;;;;;1999.90;999.90;;;11.90;1.00;;;;;;5112526;28;20047;-78
2022/05/27 03:57:48;;;;;;;1999.90;999.90;;;12.00;1.00;;;;;;5112337;28;20188;-78
2022/05/27 04:00:15;;;;;;;1595.45;767.60;;;12.00;1.00;;;;;;5112492;28;20543;-79
2022/05/27 04:02:42;;;;;;;1999.90;999.90;;;12.20;1.00;;;;;;5110988;28;20047;-79
2022/05/27 04:05:10;;;;;;;939.13;170.60;;;12.10;1.00;;;;;;5091212;28;20052;-80
2022/05/27 04:07:36;;;;;;;1999.90;999.90;;;12.10;1.00;;;;;;5092198;28;20496;-78
2022/05/27 04:10:03;;;;;;;1749.60;801.67;;;13.50;1.00;;;;;;5090829;28;20130;-78
2022/05/27 04:12:28;;;;;;;926.85;171.85;;;12.40;1.00;;;;;;5091952;28;20245;-79
2022/05/27 04:14:54;;;;;;;856.92;164.90;;;12.40;1.00;;;;;;5091939;28;20048;-78
2022/05/27 04:17:32;;;;;;;1763.38;801.30;;;12.90;1.00;;;;;;5091845;28;20053;-78
2022/05/27 04:20:06;;;;;;;1370.20;461.67;;;12.50;1.00;;;;;;5092341;28;20131;-78
2022/05/27 04:22:32;;;;;;;1782.85;810.83;;;12.50;1.00;;;;;;5091706;28;20095;-78
2022/05/27 04:24:58;;;;;;;1131.55;212.18;;;13.40;1.00;;;;;;5090468;28;20434;-78
2022/05/27 04:27:25;;;;;;;1116.18;218.02;;;12.50;1.00;;;;;;5090573;28;20126;-79
2022/05/27 04:29:52;;;;;;;1189.82;205.38;;;12.60;99.90;;;;;;5091729;28;20525;-78
2022/05/27 04:32:18;;;;;;;1883.57;834.65;;;13.30;99.90;;;;;;5091692;28;20071;-79
2022/05/27 04:34:44;;;;;;;1999.90;999.90;;;12.60;99.90;;;;;;5090823;28;20044;-78
2022/05/27 04:37:11;;;;;;;1690.05;785.47;;;12.60;99.90;;;;;;5074057;28;20048;-78
2022/05/27 04:39:37;;;;;;;1999.90;999.90;;;12.60;99.90;;;;;;5091555;28;20130;-78
2022/05/27 04:42:03;;;;;;;1852.28;822.33;;;12.60;99.90;;;;;;5091864;28;20078;-78
2022/05/27 04:44:29;;;;;;;1899.00;832.97;;;12.60;99.90;;;;;;5091498;28;20369;-78
2022/05/27 04:46:55;;;;;;;1847.68;825.45;;;12.70;99.90;;;;;;5091765;28;20055;-78
2022/05/27 04:52:05;;;;;;;1999.90;999.90;;;13.00;99.90;;;;;;5090635;28;20377;-78
2022/05/27 04:54:31;;;;;;;1683.70;783.42;;;12.80;99.90;;;;;;5089997;28;20044;-79
2022/05/27 04:56:57;;;;;;;1999.90;999.90;;;12.70;99.90;;;;;;5091985;28;20048;-78
2022/05/27 04:59:23;;;;;;;1999.90;999.90;;;12.60;99.90;;;;;;5091355;28;20052;-78
2022/05/27 05:01:49;;;;;;;1999.90;999.90;;;12.50;99.90;;;;;;5090474;28;20124;-79
2022/05/27 05:04:15;;;;;;;1999.90;999.90;;;12.80;99.90;;;;;;5089350;28;20097;-79
2022/05/27 05:06:42;;;;;;;1999.90;999.90;;;12.50;99.90;;;;;;5091667;28;20144;-79
2022/05/27 05:09:09;;;;;;;1999.90;999.90;;;12.40;99.90;;;;;;5091344;28;20073;-78
2022/05/27 05:11:34;;;;;;;1999.90;999.90;;;12.40;99.90;;;;;;5091330;28;20044;-79
2022/05/27 05:14:00;;;;;;;1999.90;999.90;;;12.40;99.90;;;;;;5091355;28;20362;-78
2022/05/27 05:16:26;;;;;;;1999.90;999.90;;;12.40;99.90;;;;;;5091272;28;20044;-79
2022/05/27 05:18:52;;;;;;;1999.90;999.90;;;12.50;99.90;;;;;;5091380;28;20568;-78
2022/05/27 05:21:17;;;;;;;1999.90;999.90;;;12.60;99.90;;;;;;5091063;28;20048;-79
2022/05/27 05:23:43;;;;;;;1999.90;999.90;;;12.50;99.90;;;;;;5090670;28;20051;-79
2022/05/27 05:26:09;;;;;;;1999.90;999.90;;;12.50;99.90;;;;;;5091486;28;20048;-78
2022/05/27 05:28:35;;;;;;;1999.90;999.90;;;12.50;99.90;;;;;;5089879;28;20169;-78
2022/05/27 05:31:00;;;;;;;1999.90;999.90;;;12.60;99.90;;;;;;5091438;28;20044;-79
2022/05/27 05:33:26;;;;;;;1783.32;706.15;;;12.70;99.90;;;;;;5090964;28;20044;-78
2022/05/27 05:35:52;;;;;;;1999.90;999.90;;;12.80;99.90;;;;;;5091599;28;20412;-79
2022/05/27 05:38:19;;;;;;;1999.90;879.22;;;12.80;99.90;;;;;;5094326;28;20097;-79
2022/05/27 05:40:46;;;;;;;1992.90;544.83;;;12.90;99.90;;;;;;5095111;28;20048;-78
2022/05/27 05:43:13;;;;;;;1616.70;418.23;;;12.80;99.90;;;;;;5094723;28;20083;-78
2022/05/27 05:45:39;;;;;;;1999.90;929.63;;;12.90;99.90;;;;;;5094478;28;20055;-79
2022/05/27 05:48:06;;;;;;;1958.70;457.38;;;12.80;99.90;;;;;;5094651;28;20048;-78
2022/05/27 05:50:33;;;;;;;1999.90;680.58;;;12.90;99.90;;;;;;5076186;28;20119;-79
2022/05/27 05:52:59;;;;;;;1999.90;593.20;;;13.00;99.90;;;;;;5092978;28;20461;-78
2022/05/27 05:55:26;;;;;;;1987.78;494.33;;;13.10;99.90;;;;;;5094066;28;20043;-79
2022/05/27 05:57:52;;;;;;;1999.90;621.08;;;13.10;99.90;;;;;;5094624;28;20130;-78
2022/05/27 06:00:24;;;;;;;1999.90;462.27;;;13.10;99.90;;;;;;5093020;28;20067;-80
2022/05/27 06:02:51;;;;;;;1999.90;594.60;;;13.10;99.90;;;;;;5094101;28;20044;-78
2022/05/27 06:05:17;;;;;;;1749.75;377.17;;;13.10;99.90;;;;;;5096819;28;20102;-79
2022/05/27 06:07:44;;;;;;;1999.90;934.72;;;13.10;99.90;;;;;;5114458;28;20502;-81
2022/05/27 06:10:11;;;;;;;1999.90;999.90;;;13.00;99.90;;;;;;5096665;28;20055;-79
2022/05/27 06:12:37;;;;;;;1999.90;860.75;;;12.90;99.90;;;;;;5095893;28;20122;-79
2022/05/27 06:15:05;;;;;;;1999.90;762.47;;;12.80;99.90;;;;;;5096629;28;20086;-79
2022/05/27 06:17:33;;;;;;;1999.90;974.22;;;12.80;99.90;;;;;;5096147;28;20126;-80
2022/05/27 06:19:59;;;;;;;1999.90;886.05;;;12.90;99.90;;;;;;5114228;28;20615;-79
2022/05/27 06:22:25;;;;;;;1999.90;811.47;;;13.00;99.90;;;;;;5114059;28;20055;-79
2022/05/27 06:24:51;;;;;;;1999.90;835.38;;;12.90;99.90;;;;;;5114144;28;20047;-79
2022/05/27 06:27:17;;;;;;;1999.90;999.90;;;12.80;99.90;;;;;;5114798;28;20059;-79
2022/05/27 06:35:11;;;;;;;1999.90;925.50;;;13.00;85.40;;;;;;5114285;28;20126;-79
2022/05/27 06:37:37;;;;;;;1999.90;988.28;;;13.10;90.00;;;;;;5114112;28;20559;-80
2022/05/27 06:40:04;;;;;;;1999.90;850.47;;;13.10;58.90;;;;;;5113942;28;20048;-79
2022/05/27 06:42:30;;;;;;;1999.90;997.17;;;13.10;26.70;;;;;;5113721;28;20042;-79
2022/05/27 06:44:56;;;;;;;1999.90;937.40;;;13.10;26.50;;;;;;5079109;28;20043;-79
2022/05/27 06:47:22;;;;;;;1999.90;999.90;;;13.10;27.70;;;;;;5112956;28;20039;-80
2022/05/27 06:49:48;;;;;;;1898.82;722.13;;;13.10;37.70;;;;;;5113930;28;20477;-80
2022/05/27 06:52:15;;;;;;;1999.90;999.90;;;13.10;23.40;;;;;;5113989;28;20448;-80
2022/05/27 06:54:44;;;;;;;1998.00;872.08;;;13.20;7.60;;;;;;5113213;28;20050;-79
2022/05/27 06:57:10;;;;;;;1999.90;999.90;;;13.20;6.80;;;;;;5113883;28;20086;-79
2022/05/27 06:59:36;;;;;;;1999.90;999.90;;;13.30;1.00;;;;;;5113417;28;20043;-80
2022/05/27 07:02:03;;;;;;;1999.90;999.90;;;13.40;1.00;;;;;;5112563;28;20069;-80
2022/05/27 07:04:29;;;;;;;1999.90;999.90;;;13.50;1.00;;;;;;5094451;28;20055;-80
2022/05/27 07:06:57;;;;;;;1999.90;999.90;;;14.50;1.00;;;;;;5078770;28;20047;-80
2022/05/27 07:09:24;;;;;;;1999.90;999.90;;;14.40;1.00;;;;;;5094787;28;20048;-79
2022/05/27 07:11:52;;;;;;;1999.90;999.90;;;14.50;1.00;;;;;;5113535;28;20046;-80
2022/05/27 07:14:18;;;;;;;;;;;14.50;1.00;;;;;;5078441;28;20051;-80
2022/05/27 07:16:46;;;;;;;1999.90;999.90;;;15.20;1.00;;;;;;5113100;28;19920;-80
2022/05/27 07:19:12;;;;;;;1999.90;999.90;;;16.30;1.00;;;;;;5112973;28;20523;-80
2022/05/27 07:21:39;;;;;;;1999.90;838.72;;;17.20;1.00;;;;;;5112904;28;20126;-80
2022/05/27 07:24:09;;;;;;;1999.90;999.90;;;18.10;1.00;;;;;;5112607;28;20412;-80
2022/05/27 07:26:37;;;;;;;1063.05;953.05;;;18.30;1.00;;;;;;5095029;28;20044;-81
2022/05/27 07:29:04;;;;;;;1019.72;912.90;;;18.70;1.00;;;;;;5113357;28;20133;-80
2022/05/27 07:31:35;;;;;;;1096.22;967.20;;;19.20;1.00;;;;;;5112810;28;20036;-81
2022/05/27 07:34:01;;;;;;;629.97;572.25;;;19.50;1.00;;;;;;5113030;28;20122;-81
2022/05/27 07:36:26;;;;;;;829.78;752.08;;;19.70;1.00;;;;;;5113062;28;20139;-80
2022/05/27 07:38:52;;;;;;;791.60;721.88;;;19.90;1.00;;;;;;5112692;28;20048;-80
2022/05/27 07:41:23;;;;;;;361.70;336.17;;;20.60;1.00;;;;;;5094869;28;20043;-81
2022/05/27 07:43:49;;;;;;;270.40;252.85;;;20.80;1.00;;;;;;5112448;28;20046;-81
2022/05/27 07:46:15;;;;;;;277.20;259.63;;;21.60;1.00;;;;;;5112787;28;20099;-81
2022/05/27 07:48:42;;;;;;;376.80;349.98;;;22.30;1.00;;;;;;5112343;28;20127;-81
2022/05/27 07:51:08;;;;;;;155.48;145.45;;;22.90;1.00;;;;;;5112844;28;20040;-81
2022/05/27 07:53:35;;;;;;;169.00;158.57;;;23.00;99.90;;;;;;5112070;28;20062;-81
2022/05/27 07:56:06;;;;;;;308.17;287.88;;;23.30;1.00;;;;;;5094549;28;20043;-81
2022/05/27 07:58:32;;;;;;;380.08;355.17;;;23.50;1.00;;;;;;5111900;28;20492;-81
2022/05/27 08:00:58;;;;;;;342.58;320.17;;;23.00;99.90;;;;;;5111943;28;20039;-82
2022/05/27 08:03:24;;;;;;;327.35;306.80;;;22.00;99.90;;;;;;5077374;28;20534;-80
2022/05/27 08:05:50;;;;;;;289.08;271.45;;;21.20;1.00;;;;;;5094171;28;20100;-81
2022/05/27 08:08:18;;;;;;;319.40;296.42;;;20.30;1.00;;;;;;5112287;28;20054;-82
2022/05/27 08:10:43;;;;;;;511.02;473.95;;;19.30;1.00;;;;;;5112281;28;20095;-81
2022/05/27 08:13:09;;;;;;;522.53;483.92;;;18.70;1.00;;;;;;5112442;28;20082;-83
2022/05/27 08:15:35;;;;;;;504.77;468.92;;;19.10;1.00;;;;;;5112094;28;20134;-81
2022/05/27 08:18:01;;;;;;;507.08;471.90;;;20.40;1.00;;;;;;5112238;28;20373;-79
2022/05/27 08:20:29;;;;;;;439.85;409.02;;;21.70;99.90;;;;;;5112233;28;20051;-81
2022/05/27 08:22:57;;;;;;;453.73;420.05;;;22.40;99.90;;;;;;5093314;28;20143;-81
2022/05/27 08:25:24;;;;;;;494.10;458.67;;;22.90;99.90;;;;;;5112717;28;20055;-81
2022/05/27 08:27:50;;;;;;;491.67;453.35;;;23.10;99.90;;;;;;5077482;28;20058;-81
2022/05/27 08:30:20;;;;;;;525.22;485.23;;;22.00;99.90;;;;;;5094432;28;20051;-81
2022/05/27 08:32:47;;;;;;;535.25;495.77;;;21.90;99.90;;;;;;5111696;28;20455;-81
2022/05/27 08:38:03;;;;;;;369.60;345.25;;;20.60;99.90;;;;;;5113507;28;20070;-80
2022/05/27 08:40:52;;;;;;;435.02;406.08;;;21.90;99.90;;;;;;5112630;28;20115;-80
2022/05/27 08:43:23;;;;;;;609.20;567.88;;;23.20;99.90;;;;;;5098391;28;20054;-80
2022/05/27 08:46:23;;;;;;;553.28;514.83;;;23.60;99.90;;;;;;5093962;28;20048;-78
2022/05/27 08:48:54;;;;;;;501.13;467.13;;;23.30;99.90;;;;;;5093168;28;20475;-81
2022/05/27 08:51:34;;;;;;;533.22;493.65;;;23.60;99.90;;;;;;5094247;28;20054;-81
2022/05/27 08:54:15;;;;;;;587.90;546.88;;;24.10;99.90;;;;;;5111751;28;20052;-81
2022/05/27 08:59:56;;;;;;;304.30;281.08;;;25.30;99.90;;;;;;5093772;28;20058;-81
2022/05/27 09:02:45;;;;;;;372.45;342.08;;;26.00;99.90;;;;;;5110254;28;20048;-81
2022/05/27 09:05:47;;;;;;;242.60;225.18;;;26.40;99.90;;;;;;5112133;28;20160;-81
2022/05/27 09:08:20;;;;;;;362.95;332.23;;;27.20;99.90;;;;;;5059059;28;20400;-81
2022/05/27 09:11:07;;;;;;;218.50;203.38;;;27.40;99.90;;;;;;5094908;28;20116;-81
2022/05/27 09:13:35;;;;;;;307.73;281.10;;;26.90;99.90;;;;;;5115757;28;20052;-81
2022/05/27 09:16:19;;;;;;;488.02;445.98;;;25.20;99.90;;;;;;5115931;28;20391;-81
2022/05/27 09:19:01;;;;;;;514.42;470.50;;;23.80;99.90;;;;;;5115131;28;20436;-81
2022/05/27 09:21:30;;;;;;;524.72;474.83;;;23.30;99.90;;;;;;5097731;28;20096;-81
2022/05/27 09:24:13;;;;;;;267.88;243.57;;;24.00;99.90;;;;;;5096822;28;20309;-81
2022/05/27 09:26:49;;;;;;;405.73;368.65;;;23.40;99.90;;;;;;5097571;28;20060;-82
2022/05/27 09:29:39;;;;;;;589.95;538.03;;;23.30;99.90;;;;;;5080614;28;20051;-81
2022/05/27 09:32:21;;;;;;;797.88;728.13;;;22.80;99.90;;;;;;5115756;28;20051;-81
2022/05/27 09:34:49;;;;;;;744.67;682.33;;;22.90;99.90;;;;;;5115383;28;20047;-80
2022/05/27 09:37:31;;;;;;;792.78;727.35;;;23.10;99.90;;;;;;5115603;28;20082;-82
2022/05/27 09:40:00;;;;;;;681.63;628.80;;;22.50;99.90;;;;;;5079561;28;20043;-78
2022/05/27 09:42:34;;;;;;;625.67;569.97;;;21.80;99.90;;;;;;5079703;28;20069;-78
2022/05/27 09:45:01;;;;;;;678.03;613.13;;;21.70;99.90;;;;;;5114627;28;20055;-79
2022/05/27 09:47:34;;;;;;;757.50;682.40;;;22.00;99.90;;;;;;5097102;28;20476;-80
2022/05/27 09:50:05;;;;;;;785.85;713.10;;;22.00;99.90;;;;;;5114750;28;20044;-81
2022/05/27 09:52:38;;;;;;;751.10;681.63;;;22.20;99.90;;;;;;5115179;28;20510;-81
2022/05/27 09:55:43;;;;;;;732.20;665.88;;;23.00;99.90;;;;;;5096815;28;20145;-81
2022/05/27 09:58:08;;;;;;;736.72;672.20;;;23.90;99.90;;;;;;5046117;28;20100;-82
2022/05/27 10:00:36;;;;;;;747.55;678.47;;;24.20;99.90;;;;;;5115038;28;20107;-80
2022/05/27 10:03:39;;;;;;;693.90;629.25;;;23.80;99.90;;;;;;5112940;28;20039;-81
2022/05/27 10:06:26;;;;;;;800.90;724.08;;;23.30;99.90;;;;;;5096853;28;20513;-81
2022/05/27 10:08:58;;;;;;;665.28;602.20;;;22.70;99.90;;;;;;5114184;28;20129;-81
2022/05/27 10:11:25;;;;;;;609.60;554.05;;;23.30;99.90;;;;;;5096581;28;20046;-81
2022/05/27 10:14:06;;;;;;;734.60;673.60;;;23.50;99.90;;;;;;5114344;28;20044;-81
2022/05/27 10:16:33;;;;;;;825.67;749.50;;;23.40;99.90;;;;;;5096457;28;20125;-81
2022/05/27 10:19:10;;;;;;;829.27;754.87;;;23.40;99.90;;;;;;5095746;28;20323;-81
2022/05/27 10:21:53;;;;;;;496.58;450.45;;;23.40;99.90;;;;;;5096008;28;20050;-82
2022/05/27 10:24:38;;;;;;;487.42;446.70;;;23.40;99.90;;;;;;5114170;28;20047;-81
2022/05/27 10:27:20;;;;;;;737.55;675.75;;;23.30;99.90;;;;;;5114387;28;20051;-81
2022/05/27 10:30:06;;;;;;;819.08;744.45;;;23.50;99.90;;;;;;5096054;28;20051;-81
2022/05/27 10:32:40;;;;;;;742.70;673.78;;;23.00;99.90;;;;;;5096349;28;20074;-81
2022/05/27 10:35:29;;;;;;;806.05;734.00;;;22.80;99.90;;;;;;5114416;28;20052;-81
2022/05/27 10:38:39;;;;;;;583.17;530.42;;;22.90;99.90;;;;;;5113564;28;20040;-82
2022/05/27 10:41:08;;;;;;;666.25;612.08;;;22.40;99.90;;;;;;5079259;28;20126;-81
2022/05/27 10:44:05;;;;;;;671.50;619.60;;;21.40;99.90;;;;;;5113961;28;20083;-81
2022/05/27 10:46:36;;;;;;;692.47;635.00;;;21.30;99.90;;;;;;5114308;28;20452;-81
2022/05/27 10:49:18;;;;;;;798.00;725.53;;;21.90;99.90;;;;;;5113535;28;20523;-80
2022/05/27 10:52:05;;;;;;;833.05;753.20;;;23.10;99.90;;;;;;5095491;28;20040;-80
2022/05/27 10:54:47;;;;;;;693.25;628.75;;;23.70;99.90;;;;;;5113462;28;20047;-80
2022/05/27 11:03:42;;;;;;;597.97;550.25;;;21.70;99.90;;;;;;5113089;28;20142;-81
2022/05/27 11:06:26;;;;;;;711.97;653.90;;;21.60;99.90;;;;;;5095548;28;20051;-81
2022/05/27 11:09:18;;;;;;;686.50;626.30;;;22.10;99.90;;;;;;5112996;28;20044;-81
2022/05/27 11:12:03;;;;;;;724.13;661.00;;;22.80;99.90;;;;;;5095264;28;20036;-81
2022/05/27 11:15:12;;;;;;;678.30;618.40;;;22.40;99.90;;;;;;5094931;28;20612;-81
2022/05/27 11:18:12;;;;;;;679.67;620.90;;;22.00;99.90;;;;;;5113329;28;20047;-81
2022/05/27 11:20:44;;;;;;;811.65;737.78;;;23.10;99.90;;;;;;5078089;28;20454;-81
2022/05/27 11:23:46;;;;;;;753.40;682.78;;;24.10;99.90;;;;;;5094595;28;20425;-81
2022/05/27 11:26:25;;;;;;;615.75;565.15;;;24.10;99.90;;;;;;5095108;28;20043;-81
2022/05/27 11:29:18;;;;;;;691.90;633.47;;;22.90;99.90;;;;;;5093736;28;20510;-81
2022/05/27 11:31:55;;;;;;;738.10;673.17;;;22.20;99.90;;;;;;5094748;28;20058;-81
2022/05/27 11:34:31;;;;;;;661.97;605.13;;;22.10;99.90;;;;;;5112566;28;20111;-81
2022/05/27 11:37:15;;;;;;;705.00;645.88;;;22.00;99.90;;;;;;5094362;28;20048;-81
2022/05/27 11:39:52;;;;;;;642.13;589.30;;;21.60;99.90;;;;;;5094414;28;20442;-81
2022/05/27 11:42:24;;;;;;;666.60;611.95;;;21.20;99.90;;;;;;5112897;28;20039;-81
2022/05/27 11:44:50;;;;;;;729.72;668.55;;;20.90;99.90;;;;;;5112684;28;20372;-81
2022/05/27 11:47:27;;;;;;;751.08;686.20;;;20.60;99.90;;;;;;5094818;28;20047;-82
2022/05/27 11:49:56;;;;;;;608.72;558.20;;;21.10;99.90;;;;;;5094003;28;20047;-81
2022/05/27 11:52:58;;;;;;;578.22;525.58;;;21.90;99.90;;;;;;5112695;28;20203;-81
2022/05/27 11:56:03;;;;;;;683.45;622.08;;;22.50;99.90;;;;;;5094361;28;20479;-81
2022/05/27 11:58:41;;;;;;;755.72;688.25;;;22.10;99.90;;;;;;5094650;28;20051;-81
2022/05/27 12:01:14;;;;;;;571.08;524.80;;;22.50;99.90;;;;;;5111155;28;20048;-81
2022/05/27 12:04:06;;;;;;;754.00;688.50;;;22.40;99.90;;;;;;5112187;28;20098;-81
2022/05/27 12:06:45;;;;;;;418.33;385.35;;;22.20;99.90;;;;;;5112284;28;20493;-81
2022/05/27 12:09:30;;;;;;;621.63;568.50;;;22.10;99.90;;;;;;5093579;28;20083;-81
2022/05/27 12:12:01;;;;;;;726.92;663.45;;;22.40;99.90;;;;;;5093780;28;20530;-81
2022/05/27 12:14:39;;;;;;;780.63;710.58;;;22.40;99.90;;;;;;5112364;28;20051;-80
2022/05/27 12:17:16;;;;;;;673.50;618.10;;;21.50;99.90;;;;;;5112515;28;20054;-81
2022/05/27 12:19:48;;;;;;;459.50;424.20;;;20.90;99.90;;;;;;5112322;28;20043;-80
2022/05/27 12:22:22;;;;;;;508.60;457.60;;;20.70;99.90;;;;;;5113186;28;20148;-81
2022/05/27 12:25:05;;;;;;;326.83;302.23;;;20.40;99.90;;;;;;5113130;28;20051;-81
2022/05/27 12:27:33;;;;;;;435.92;401.58;;;20.20;99.90;;;;;;5097138;28;20444;-81
2022/05/27 12:30:00;;;;;;;371.45;343.83;;;20.00;99.90;;;;;;5114678;28;20051;-80
2022/05/27 12:32:28;;;;;;;309.90;287.83;;;20.00;99.90;;;;;;5115944;28;20052;-80
2022/05/27 12:35:19;;;;;;;409.48;377.13;;;19.90;99.90;;;;;;5093719;28;20341;-81
2022/05/27 12:37:48;;;;;;;357.45;326.80;;;19.80;99.90;;;;;;5111907;28;20055;-81
2022/05/27 12:40:29;;;;;;;504.67;464.08;;;19.60;99.90;;;;;;5112050;28;20047;-81
2022/05/27 12:42:59;;;;;;;410.17;376.52;;;19.10;99.90;;;;;;5111659;28;20143;-81
2022/05/27 12:45:25;;;;;;;267.40;247.20;;;18.70;99.90;;;;;;5095036;28;20084;-80
2022/05/27 12:47:54;;;;;;;849.85;762.30;;;18.50;99.90;;;;;;5115652;28;20040;-81
2022/05/27 12:50:32;;;;;;;755.58;682.28;;;18.70;99.90;;;;;;5116362;28;20047;-80
2022/05/27 12:53:19;;;;;;;284.73;263.30;;;18.90;99.90;;;;;;5115514;28;20142;-80
2022/05/27 13:01:42;;;;;;;253.68;236.23;;;19.10;99.90;;;;;;5114523;28;20432;-81
2022/05/27 13:04:27;;;;;;;298.45;277.85;;;19.00;99.90;;;;;;5080248;28;20062;-80
2022/05/27 13:07:05;;;;;;;383.55;351.55;;;18.90;99.90;;;;;;5115630;28;20088;-81
2022/05/27 13:09:43;;;;;;;707.00;638.17;;;18.90;99.90;;;;;;5115469;28;20043;-81
2022/05/27 13:12:30;;;;;;;311.75;289.15;;;18.90;99.90;;;;;;5115734;28;20039;-80